createdAt,value
2023-02-18T00:00:27.780Z,14.23
2023-02-18T00:02:55.805Z,13.85
2023-02-18T00:05:22.907Z,11.90
2023-02-18T00:07:49.405Z,13.50
2023-02-18T00:10:16.671Z,13.07
2023-02-18T00:12:43.110Z,13.70
2023-02-18T00:15:10.132Z,12.32
2023-02-18T00:17:37.551Z,12.32
2023-02-18T00:20:06.029Z,12.93
2023-02-18T00:22:32.413Z,11.63
2023-02-18T00:24:58.879Z,13.65
2023-02-18T00:27:25.287Z,12.60
2023-02-18T00:29:51.675Z,13.32
2023-02-18T00:32:18.200Z,12.73
2023-02-18T00:34:44.716Z,13.23
2023-02-18T00:37:11.155Z,12.40
2023-02-18T00:39:37.612Z,12.30
2023-02-18T00:42:04.181Z,13.02
2023-02-18T00:44:30.630Z,12.38
2023-02-18T00:46:57.042Z,12.57
2023-02-18T00:49:23.537Z,12.35
2023-02-18T00:51:50.428Z,12.65
2023-02-18T00:54:16.876Z,12.70
2023-02-18T00:56:43.271Z,11.85
2023-02-18T00:59:09.680Z,11.82
2023-02-18T01:01:36.211Z,12.40
2023-02-18T01:04:02.648Z,12.75
2023-02-18T01:06:29.267Z,13.40
2023-02-18T01:08:55.761Z,12.93
2023-02-18T01:11:22.809Z,13.18
2023-02-18T01:13:49.379Z,13.23
2023-02-18T01:16:17.152Z,13.13
2023-02-18T01:18:43.696Z,12.50
2023-02-18T01:21:10.945Z,11.85
2023-02-18T01:23:41.416Z,13.50
2023-02-18T01:26:08.519Z,12.15
2023-02-18T01:28:35.496Z,13.15
2023-02-18T01:31:07.893Z,13.32
2023-02-18T01:33:34.899Z,13.55
2023-02-18T01:36:01.656Z,12.50
2023-02-18T01:38:28.415Z,12.73
2023-02-18T01:40:54.975Z,12.75
2023-02-18T01:43:22.265Z,12.50
2023-02-18T01:46:07.720Z,13.13
2023-02-18T01:48:48.646Z,12.30
2023-02-18T01:51:20.222Z,13.93
2023-02-18T01:53:48.840Z,13.27
2023-02-18T01:56:22.828Z,12.52
2023-02-18T01:58:50.784Z,12.05
2023-02-18T02:01:17.350Z,13.27
2023-02-18T02:03:43.757Z,12.68
2023-02-18T02:06:20.313Z,11.93
2023-02-18T02:08:49.138Z,12.35
2023-02-18T02:11:38.999Z,12.95
2023-02-18T02:14:25.741Z,12.43
2023-02-18T02:17:11.318Z,13.15
2023-02-18T02:19:56.520Z,12.98
2023-02-18T02:22:29.106Z,13.00
2023-02-18T02:25:37.449Z,12.57
2023-02-18T02:28:23.392Z,13.10
2023-02-18T02:30:57.169Z,12.30
2023-02-18T02:34:08.763Z,13.57
2023-02-18T02:36:35.088Z,12.18
2023-02-18T02:39:13.785Z,12.10
2023-02-18T02:42:00.417Z,11.73
2023-02-18T02:44:39.286Z,11.60
2023-02-18T02:47:18.065Z,11.70
2023-02-18T02:50:00.948Z,11.48
2023-02-18T02:52:33.082Z,11.75
2023-02-18T02:54:59.732Z,11.55
2023-02-18T02:57:26.123Z,12.32
2023-02-18T02:59:58.172Z,10.45
2023-02-18T03:02:40.730Z,11.15
2023-02-18T03:05:26.077Z,12.45
2023-02-18T03:08:17.220Z,11.38
2023-02-18T03:11:02.363Z,12.75
2023-02-18T03:13:56.388Z,12.43
2023-02-18T03:16:25.674Z,11.75
2023-02-18T03:19:09.952Z,11.47
2023-02-18T03:22:01.967Z,11.45
2023-02-18T03:24:39.187Z,12.32
2023-02-18T03:27:12.333Z,11.43
2023-02-18T03:29:40.900Z,11.65
2023-02-18T03:32:11.260Z,11.05
2023-02-18T03:34:45.957Z,11.38
2023-02-18T03:37:14.326Z,11.85
2023-02-18T03:39:44.460Z,11.95
2023-02-18T03:42:11.213Z,12.00
2023-02-18T03:44:37.627Z,10.50
2023-02-18T03:47:04.329Z,12.38
2023-02-18T03:49:30.736Z,12.15
2023-02-18T03:51:57.121Z,10.73
2023-02-18T03:54:23.513Z,12.23
2023-02-18T03:56:49.928Z,11.38
2023-02-18T03:59:16.355Z,11.48
2023-02-18T04:01:42.847Z,11.63
2023-02-18T04:04:09.471Z,10.52
2023-02-18T04:06:36.393Z,10.95
2023-02-18T04:09:08.671Z,11.25
2023-02-18T04:11:39.503Z,12.13
2023-02-18T04:14:07.161Z,12.40
2023-02-18T04:16:33.828Z,12.68
2023-02-18T04:19:00.301Z,12.07
2023-02-18T04:21:26.713Z,11.88
2023-02-18T04:23:53.096Z,12.10
2023-02-18T04:26:19.598Z,12.82
2023-02-18T04:28:46.130Z,12.13
2023-02-18T04:31:12.652Z,12.57
2023-02-18T04:33:39.098Z,12.63
2023-02-18T04:36:06.241Z,13.30
2023-02-18T04:38:32.846Z,13.18
2023-02-18T04:40:59.352Z,12.10
2023-02-18T04:43:25.808Z,12.98
2023-02-18T04:45:52.232Z,11.93
2023-02-18T04:48:18.817Z,12.85
2023-02-18T04:50:45.380Z,12.32
2023-02-18T04:53:11.823Z,12.43
2023-02-18T04:55:38.224Z,11.98
2023-02-18T04:58:04.821Z,14.13
2023-02-18T05:00:31.253Z,12.25
2023-02-18T05:02:57.707Z,12.45
2023-02-18T05:05:24.133Z,12.52
2023-02-18T05:07:50.572Z,12.77
2023-02-18T05:10:17.637Z,12.73
2023-02-18T05:12:44.205Z,13.82
2023-02-18T05:15:10.751Z,14.63
2023-02-18T05:17:37.309Z,14.10
2023-02-18T05:20:05.004Z,15.23
2023-02-18T05:22:31.444Z,14.88
2023-02-18T05:24:57.975Z,18.05
2023-02-18T05:27:24.499Z,17.50
2023-02-18T05:29:50.972Z,20.23
2023-02-18T05:32:17.501Z,20.88
2023-02-18T05:34:44.053Z,22.63
2023-02-18T05:37:10.617Z,21.13
2023-02-18T05:39:37.193Z,22.52
2023-02-18T05:42:03.711Z,22.65
2023-02-18T05:44:30.458Z,24.00
2023-02-18T05:47:17.327Z,24.30
2023-02-18T05:49:44.150Z,24.80
2023-02-18T05:52:11.409Z,24.27
2023-02-18T05:54:38.785Z,24.27
2023-02-18T05:57:05.622Z,23.75
2023-02-18T05:59:32.223Z,24.42
2023-02-18T06:01:58.660Z,24.70
2023-02-18T06:04:25.096Z,25.50
2023-02-18T06:06:51.885Z,25.63
2023-02-18T06:09:18.342Z,24.30
2023-02-18T06:11:44.774Z,24.92
2023-02-18T06:14:11.304Z,25.15
2023-02-18T06:16:37.759Z,25.50
2023-02-18T06:19:05.337Z,25.40
2023-02-18T06:21:31.789Z,26.70
2023-02-18T06:23:58.254Z,25.83
2023-02-18T06:26:25.036Z,25.45
2023-02-18T06:28:51.678Z,25.65
2023-02-18T06:31:18.244Z,25.17
2023-02-18T06:33:44.918Z,25.52
2023-02-18T06:36:12.399Z,25.23
2023-02-18T06:38:44.686Z,24.58
2023-02-18T06:41:13.186Z,25.33
2023-02-18T06:43:39.793Z,24.70
2023-02-18T06:46:07.207Z,23.73
2023-02-18T06:48:34.033Z,25.13
2023-02-18T06:51:00.449Z,24.90
2023-02-18T06:53:26.863Z,24.08
2023-02-18T06:55:53.365Z,25.17
2023-02-18T06:58:19.797Z,25.08
2023-02-18T07:00:46.312Z,25.60
2023-02-18T07:03:14.166Z,25.20
2023-02-18T07:05:41.352Z,25.15
2023-02-18T07:08:08.221Z,25.33
2023-02-18T07:10:34.619Z,26.40
2023-02-18T07:13:01.080Z,25.30
2023-02-18T07:15:27.975Z,26.23
2023-02-18T07:17:54.738Z,26.05
2023-02-18T07:20:22.059Z,25.88
2023-02-18T07:22:48.991Z,26.75
2023-02-18T07:25:15.568Z,27.70
2023-02-18T07:27:42.371Z,27.88
2023-02-18T07:30:09.396Z,26.35
2023-02-18T07:32:36.530Z,27.40
2023-02-18T07:35:04.851Z,26.08
2023-02-18T07:37:31.879Z,27.05
2023-02-18T07:39:58.520Z,27.27
2023-02-18T07:42:24.968Z,27.10
2023-02-18T07:44:51.529Z,26.65
2023-02-18T07:47:19.753Z,26.25
2023-02-18T07:49:46.843Z,26.48
2023-02-18T07:52:14.837Z,26.20
2023-02-18T07:54:41.417Z,27.02
2023-02-18T07:57:07.882Z,27.50
2023-02-18T07:59:34.384Z,27.35
2023-02-18T08:02:00.854Z,26.45
2023-02-18T08:04:27.329Z,27.48
2023-02-18T08:06:53.755Z,28.17
2023-02-18T08:09:20.197Z,27.33
2023-02-18T08:11:46.618Z,26.75
2023-02-18T08:14:13.183Z,27.88
2023-02-18T08:16:39.749Z,27.08
2023-02-18T08:19:06.247Z,26.48
2023-02-18T08:21:32.850Z,25.83
2023-02-18T08:24:00.034Z,25.98
2023-02-18T08:26:26.812Z,26.63
2023-02-18T08:28:53.220Z,26.65
2023-02-18T08:31:26.192Z,26.67
2023-02-18T08:33:54.845Z,28.08
2023-02-18T08:36:22.180Z,29.30
2023-02-18T08:38:48.861Z,28.85
2023-02-18T08:41:15.843Z,28.17
2023-02-18T08:43:42.937Z,28.65
2023-02-18T08:46:16.221Z,29.75
2023-02-18T08:48:55.873Z,28.52
2023-02-18T08:51:23.149Z,28.45
2023-02-18T08:53:49.831Z,28.60
2023-02-18T08:56:17.682Z,28.50
2023-02-18T08:58:44.587Z,29.08
2023-02-18T09:01:12.410Z,30.33
2023-02-18T09:03:39.170Z,28.77
2023-02-18T09:06:06.198Z,28.70
2023-02-18T09:08:32.837Z,29.38
2023-02-18T09:11:01.587Z,30.08
2023-02-18T09:13:28.430Z,30.55
2023-02-18T09:16:04.900Z,30.42
2023-02-18T09:18:32.491Z,30.50
2023-02-18T09:21:00.165Z,30.13
2023-02-18T09:23:28.634Z,30.52
2023-02-18T09:25:55.641Z,31.77
2023-02-18T09:28:22.544Z,31.13
2023-02-18T09:30:49.039Z,31.85
2023-02-18T09:33:16.599Z,32.58
2023-02-18T09:35:45.543Z,32.83
2023-02-18T09:38:14.380Z,33.08
2023-02-18T09:40:45.389Z,32.83
2023-02-18T09:43:23.549Z,33.17
2023-02-18T09:45:53.114Z,32.35
2023-02-18T09:48:26.708Z,31.52
2023-02-18T09:50:53.750Z,32.58
2023-02-18T09:53:22.299Z,31.90
2023-02-18T09:55:50.830Z,33.50
2023-02-18T09:58:21.205Z,31.65
2023-02-18T10:00:52.996Z,32.95
2023-02-18T10:03:21.342Z,32.40
2023-02-18T10:06:02.830Z,31.63
2023-02-18T10:08:34.941Z,30.80
2023-02-18T10:11:01.837Z,31.70
2023-02-18T10:13:30.999Z,31.35
2023-02-18T10:15:57.516Z,32.72
2023-02-18T10:18:41.944Z,31.63
2023-02-18T10:21:19.351Z,32.50
2023-02-18T10:24:00.125Z,30.85
2023-02-18T10:26:27.277Z,31.52
2023-02-18T10:28:53.711Z,31.20
2023-02-18T10:31:34.252Z,32.10
2023-02-18T10:34:06.370Z,32.20
2023-02-18T10:36:49.571Z,31.73
2023-02-18T10:39:40.777Z,32.30
2023-02-18T10:42:45.643Z,32.28
2023-02-18T10:45:30.444Z,32.17
2023-02-18T10:48:12.045Z,31.92
2023-02-18T10:50:40.817Z,33.08
2023-02-18T10:53:44.144Z,33.47
2023-02-18T10:56:38.631Z,33.50
2023-02-18T10:59:11.362Z,33.42
2023-02-18T11:01:39.748Z,33.30
2023-02-18T11:04:17.814Z,34.15
2023-02-18T11:06:51.396Z,33.67
2023-02-18T11:09:36.591Z,31.60
2023-02-18T11:12:21.952Z,32.45
2023-02-18T11:15:10.138Z,32.35
2023-02-18T11:17:39.607Z,32.20
2023-02-18T11:20:23.811Z,33.75
2023-02-18T11:22:51.134Z,33.63
2023-02-18T11:25:22.778Z,33.97
2023-02-18T11:27:54.978Z,35.60
2023-02-18T11:30:23.383Z,35.78
2023-02-18T11:32:54.067Z,34.13
2023-02-18T11:35:23.996Z,34.92
2023-02-18T11:37:51.276Z,34.00
2023-02-18T11:40:31.375Z,34.13
2023-02-18T11:43:19.314Z,33.42
2023-02-18T11:45:46.848Z,32.95
2023-02-18T11:48:24.128Z,31.73
2023-02-18T11:50:53.429Z,29.95
2023-02-18T11:53:37.931Z,29.63
2023-02-18T11:56:16.504Z,28.30
2023-02-18T11:58:47.633Z,27.70
2023-02-18T12:01:40.620Z,27.80
2023-02-18T12:04:14.753Z,27.85
2023-02-18T12:07:05.564Z,28.63
2023-02-18T12:09:38.533Z,28.90
2023-02-18T12:12:48.282Z,28.77
2023-02-18T12:15:20.252Z,29.05
2023-02-18T12:18:04.290Z,29.60
2023-02-18T12:20:59.386Z,30.10
2023-02-18T12:23:52.558Z,30.13
2023-02-18T12:26:25.015Z,31.15
2023-02-18T12:29:17.647Z,31.42
2023-02-18T12:32:05.139Z,31.05
2023-02-18T12:34:39.652Z,32.28
2023-02-18T12:37:52.136Z,32.50
2023-02-18T12:40:57.389Z,32.53
2023-02-18T12:43:33.218Z,32.97
2023-02-18T12:46:21.881Z,33.22
2023-02-18T12:49:23.786Z,33.35
2023-02-18T12:52:04.056Z,33.38
2023-02-18T12:57:41.568Z,33.00
2023-02-18T13:00:18.065Z,31.92
2023-02-18T13:03:16.541Z,32.58
2023-02-18T13:06:13.563Z,32.53
2023-02-18T13:08:53.519Z,33.75
2023-02-18T13:11:31.930Z,34.13
2023-02-18T13:14:08.972Z,34.75
2023-02-18T13:16:36.618Z,34.60
2023-02-18T13:19:21.469Z,34.60
2023-02-18T13:21:54.566Z,33.63
2023-02-18T13:24:34.750Z,34.17
2023-02-18T13:27:13.094Z,32.95
2023-02-18T13:29:52.626Z,32.97
2023-02-18T13:32:29.545Z,35.08
2023-02-18T13:35:14.136Z,32.67
2023-02-18T13:37:50.205Z,34.42
2023-02-18T13:40:22.891Z,34.65
2023-02-18T13:42:53.574Z,33.83
2023-02-18T13:45:31.936Z,34.47
2023-02-18T13:48:00.263Z,34.03
2023-02-18T13:50:28.090Z,34.30
2023-02-18T13:53:13.147Z,34.28
2023-02-18T13:55:46.583Z,34.38
2023-02-18T13:58:29.114Z,34.70
2023-02-18T14:01:02.098Z,34.72
2023-02-18T14:03:43.724Z,33.28
2023-02-18T14:06:28.045Z,33.00
2023-02-18T14:09:12.561Z,34.17
2023-02-18T14:11:53.495Z,33.72
2023-02-18T14:14:39.243Z,34.10
2023-02-18T14:17:20.659Z,32.28
2023-02-18T14:20:10.323Z,35.38
2023-02-18T14:22:39.725Z,35.72
2023-02-18T14:25:09.109Z,32.80
2023-02-18T14:27:37.420Z,32.73
2023-02-18T14:30:07.265Z,32.78
2023-02-18T14:32:34.524Z,32.70
2023-02-18T14:35:25.168Z,32.88
2023-02-18T14:38:13.336Z,32.22
2023-02-18T14:40:48.903Z,33.83
2023-02-18T14:43:33.324Z,32.85
2023-02-18T14:46:11.717Z,34.45
2023-02-18T14:49:04.248Z,33.47
2023-02-18T14:51:32.350Z,32.78
2023-02-18T14:54:06.241Z,33.22
2023-02-18T14:56:38.661Z,32.03
2023-02-18T14:59:06.231Z,32.53
2023-02-18T15:01:35.075Z,35.00
2023-02-18T15:04:03.353Z,34.30
2023-02-18T15:06:33.420Z,36.20
2023-02-18T15:09:01.545Z,35.97
2023-02-18T15:11:40.835Z,35.42
2023-02-18T15:14:30.501Z,39.58
2023-02-18T15:16:58.611Z,32.33
2023-02-18T15:19:28.586Z,30.27
2023-02-18T15:21:57.136Z,29.70
2023-02-18T15:24:26.517Z,35.03
2023-02-18T15:26:56.221Z,32.23
2023-02-18T15:29:25.535Z,30.77
2023-02-18T15:31:52.564Z,31.65
2023-02-18T15:34:39.541Z,31.60
2023-02-18T15:37:08.291Z,32.05
2023-02-18T15:39:38.533Z,32.97
2023-02-18T15:44:53.537Z,31.75
2023-02-18T15:47:21.545Z,33.10
2023-02-18T15:49:54.025Z,32.40
2023-02-18T15:52:29.277Z,32.90
2023-02-18T15:55:00.355Z,32.00
2023-02-18T15:57:29.575Z,31.38
2023-02-18T16:00:16.097Z,31.92
2023-02-18T16:02:55.621Z,33.30
2023-02-18T16:05:26.233Z,34.00
2023-02-18T16:07:58.364Z,32.63
2023-02-18T16:10:36.783Z,31.40
2023-02-18T16:13:04.776Z,31.48
2023-02-18T16:15:43.112Z,32.15
2023-02-18T16:18:42.422Z,31.00
2023-02-18T16:21:17.824Z,30.77
2023-02-18T16:23:54.359Z,31.73
2023-02-18T16:26:31.124Z,31.83
2023-02-18T16:29:15.102Z,31.52
2023-02-18T16:31:42.695Z,31.48
2023-02-18T16:34:09.299Z,31.13
2023-02-18T16:36:35.752Z,31.08
2023-02-18T16:39:02.215Z,31.45
2023-02-18T16:41:29.254Z,31.90
2023-02-18T16:43:55.780Z,31.60
2023-02-18T16:46:24.187Z,32.85
2023-02-18T16:48:54.910Z,31.52
2023-02-18T16:51:29.672Z,31.85
2023-02-18T16:53:56.390Z,31.80
2023-02-18T16:56:25.406Z,32.20
2023-02-18T16:58:52.326Z,32.83
2023-02-18T17:01:24.109Z,31.92
2023-02-18T17:03:51.774Z,32.80
2023-02-18T17:06:19.084Z,31.30
2023-02-18T17:08:46.037Z,31.75
2023-02-18T17:11:20.852Z,32.55
2023-02-18T17:13:49.000Z,33.53
2023-02-18T17:16:16.301Z,35.15
2023-02-18T17:18:43.754Z,34.42
2023-02-18T17:21:15.313Z,37.67
2023-02-18T17:23:42.495Z,35.97
2023-02-18T17:26:27.052Z,34.88
2023-02-18T17:28:55.569Z,35.00
2023-02-18T17:31:26.451Z,35.63
2023-02-18T17:33:58.694Z,34.97
2023-02-18T17:36:25.749Z,34.53
2023-02-18T17:38:52.375Z,34.90
2023-02-18T17:41:19.207Z,37.13
2023-02-18T17:43:45.752Z,35.30
2023-02-18T17:46:14.253Z,38.95
2023-02-18T17:48:41.313Z,41.72
2023-02-18T17:51:08.394Z,36.10
2023-02-18T17:53:35.433Z,40.10
2023-02-18T17:56:02.194Z,36.53
2023-02-18T17:58:28.563Z,42.58
2023-02-18T18:00:57.439Z,57.40
2023-02-18T18:03:23.962Z,41.15
2023-02-18T18:05:52.090Z,39.85
2023-02-18T18:08:19.078Z,37.90
2023-02-18T18:10:58.574Z,37.80
2023-02-18T18:13:27.960Z,40.17
2023-02-18T18:15:56.865Z,40.58
2023-02-18T18:18:24.757Z,43.95
2023-02-18T18:20:54.287Z,43.22
2023-02-18T18:23:21.606Z,49.17
2023-02-18T18:25:56.073Z,41.67
2023-02-18T18:28:23.230Z,40.58
2023-02-18T18:30:52.278Z,41.20
2023-02-18T18:33:26.039Z,40.45
2023-02-18T18:35:54.358Z,39.13
2023-02-18T18:38:22.656Z,45.63
2023-02-18T18:40:50.316Z,49.13
2023-02-18T18:43:21.573Z,45.28
2023-02-18T18:45:49.319Z,42.67
2023-02-18T18:48:16.592Z,43.67
2023-02-18T18:50:43.337Z,40.45
2023-02-18T18:53:24.825Z,41.65
2023-02-18T18:55:54.584Z,42.33
2023-02-18T18:58:24.152Z,43.97
2023-02-18T19:00:54.216Z,42.97
2023-02-18T19:03:22.239Z,46.80
2023-02-18T19:05:49.875Z,49.13
2023-02-18T19:08:17.906Z,51.13
2023-02-18T19:10:50.095Z,49.25
2023-02-18T19:13:20.066Z,47.40
2023-02-18T19:15:48.392Z,45.38
2023-02-18T19:18:17.212Z,48.60
2023-02-18T19:20:44.204Z,47.15
2023-02-18T19:23:10.862Z,47.97
2023-02-18T19:25:38.819Z,48.83
2023-02-18T19:28:06.205Z,47.35
2023-02-18T19:30:35.916Z,48.15
2023-02-18T19:33:05.198Z,49.88
2023-02-18T19:35:32.637Z,48.63
2023-02-18T19:37:59.496Z,46.65
2023-02-18T19:40:29.628Z,47.42
2023-02-18T19:42:56.508Z,45.97
2023-02-18T19:45:23.312Z,47.08
2023-02-18T19:47:57.621Z,46.05
2023-02-18T19:50:25.801Z,43.67
2023-02-18T19:52:53.826Z,44.70
2023-02-18T19:55:20.340Z,48.53
2023-02-18T19:57:46.737Z,46.08
2023-02-18T20:00:15.996Z,48.45
2023-02-18T20:02:42.934Z,45.60
2023-02-18T20:05:11.389Z,47.47
2023-02-18T20:07:37.919Z,50.03
2023-02-18T20:10:10.200Z,47.22
2023-02-18T20:12:36.715Z,44.67
2023-02-18T20:15:04.017Z,44.10
2023-02-18T20:17:31.834Z,41.33
2023-02-18T20:19:58.363Z,40.00
2023-02-18T20:22:25.398Z,41.92
2023-02-18T20:24:51.820Z,41.05
2023-02-18T20:27:18.295Z,39.20
2023-02-18T20:29:44.916Z,37.20
2023-02-18T20:32:11.463Z,38.20
2023-02-18T20:34:38.033Z,37.10
2023-02-18T20:37:04.426Z,36.88
2023-02-18T20:39:31.031Z,37.00
2023-02-18T20:41:59.318Z,36.70
2023-02-18T20:44:29.483Z,37.90
2023-02-18T20:46:55.939Z,38.85
2023-02-18T20:49:22.574Z,38.50
2023-02-18T20:51:49.106Z,37.33
2023-02-18T20:54:19.604Z,40.50
2023-02-18T20:56:48.632Z,40.75
2023-02-18T20:59:17.734Z,41.22
2023-02-18T21:01:45.383Z,43.83
2023-02-18T21:04:13.568Z,45.40
2023-02-18T21:06:39.996Z,42.80
2023-02-18T21:09:06.510Z,48.15
2023-02-18T21:11:33.345Z,44.17
2023-02-18T21:14:00.064Z,42.15
2023-02-18T21:16:28.867Z,42.13
2023-02-18T21:18:55.429Z,44.85
2023-02-18T21:21:23.608Z,43.53
2023-02-18T21:23:50.938Z,43.53
2023-02-18T21:26:20.902Z,43.38
2023-02-18T21:28:49.110Z,43.78
2023-02-18T21:31:22.908Z,42.92
2023-02-18T21:33:49.942Z,42.40
2023-02-18T21:36:16.963Z,42.10
2023-02-18T21:38:44.812Z,41.75
2023-02-18T21:41:12.510Z,44.00
2023-02-18T21:43:39.314Z,45.53
2023-02-18T21:46:10.200Z,44.90
2023-02-18T21:48:55.128Z,45.05
2023-02-18T21:51:40.184Z,44.95
2023-02-18T21:54:07.043Z,46.40
2023-02-18T21:56:33.830Z,46.47
2023-02-18T21:59:00.302Z,45.90
2023-02-18T22:01:27.767Z,46.38
2023-02-18T22:03:57.303Z,45.97
2023-02-18T22:06:23.765Z,46.15
2023-02-18T22:08:50.160Z,46.60
2023-02-18T22:11:18.146Z,45.25
2023-02-18T22:13:44.618Z,45.75
2023-02-18T22:16:11.068Z,46.55
2023-02-18T22:18:37.552Z,46.08
2023-02-18T22:21:08.611Z,46.40
2023-02-18T22:23:35.486Z,46.03
2023-02-18T22:26:06.812Z,46.45
2023-02-18T22:28:34.160Z,46.58
2023-02-18T22:31:05.354Z,44.60
2023-02-18T22:33:31.814Z,45.30
2023-02-18T22:36:04.872Z,45.47
2023-02-18T22:38:32.940Z,45.30
2023-02-18T22:41:07.738Z,43.35
2023-02-18T22:43:35.040Z,43.40
2023-02-18T22:46:06.125Z,43.55
2023-02-18T22:48:34.396Z,43.58
2023-02-18T22:51:12.897Z,41.88
2023-02-18T22:53:40.151Z,41.05
2023-02-18T22:56:09.721Z,41.80
2023-02-18T22:58:36.618Z,41.88
2023-02-18T23:01:04.500Z,40.97
2023-02-18T23:03:31.160Z,39.60
2023-02-18T23:06:02.606Z,38.92
2023-02-18T23:08:29.462Z,37.67
2023-02-18T23:11:04.057Z,38.08
2023-02-18T23:13:31.052Z,37.45
2023-02-18T23:16:01.908Z,38.40
2023-02-18T23:18:29.238Z,39.10
2023-02-18T23:21:18.422Z,37.05
2023-02-18T23:23:46.267Z,36.92
2023-02-18T23:26:13.198Z,37.03
2023-02-18T23:28:48.762Z,37.13
2023-02-18T23:31:23.555Z,37.58
2023-02-18T23:33:53.779Z,36.63
2023-02-18T23:36:23.484Z,37.20
2023-02-18T23:39:00.556Z,36.22
2023-02-18T23:41:28.478Z,35.92
2023-02-18T23:43:55.454Z,36.17
2023-02-18T23:46:25.710Z,36.28
2023-02-18T23:51:21.114Z,35.08
2023-02-18T23:53:47.525Z,35.67
2023-02-18T23:56:15.063Z,36.53
2023-02-18T23:58:43.503Z,36.47
